createdAt,value
2022-07-29T00:01:44.233Z,20.41
2022-07-29T00:04:14.128Z,20.39
2022-07-29T00:06:42.829Z,20.33
2022-07-29T00:09:11.311Z,20.28
2022-07-29T00:11:39.446Z,20.29
2022-07-29T00:14:08.193Z,20.27
2022-07-29T00:16:36.787Z,20.25
2022-07-29T00:19:05.236Z,20.17
2022-07-29T00:21:36.090Z,20.13
2022-07-29T00:24:04.655Z,20.12
2022-07-29T00:26:33.790Z,20.08
2022-07-29T00:29:32.642Z,20.00
2022-07-29T00:31:52.887Z,19.99
2022-07-29T00:34:39.975Z,20.03
2022-07-29T00:37:08.543Z,20.07
2022-07-29T00:39:36.636Z,20.14
2022-07-29T00:42:06.150Z,20.18
2022-07-29T00:44:42.501Z,20.22
2022-07-29T00:47:12.626Z,20.22
2022-07-29T00:49:42.320Z,20.21
2022-07-29T00:52:12.213Z,20.23
2022-07-29T00:54:44.595Z,20.22
2022-07-29T00:57:13.642Z,20.10
2022-07-29T00:59:42.087Z,19.99
2022-07-29T01:02:10.447Z,19.90
2022-07-29T01:04:38.957Z,19.84
2022-07-29T01:07:08.355Z,19.80
2022-07-29T01:09:45.981Z,19.77
2022-07-29T01:12:23.592Z,19.74
2022-07-29T01:14:53.385Z,19.77
2022-07-29T01:17:29.937Z,19.80
2022-07-29T01:20:07.629Z,19.78
2022-07-29T01:22:35.698Z,19.81
2022-07-29T01:25:19.865Z,19.82
2022-07-29T01:28:13.136Z,19.87
2022-07-29T01:30:46.017Z,19.92
2022-07-29T01:33:37.384Z,19.90
2022-07-29T01:36:13.165Z,19.85
2022-07-29T01:38:44.157Z,19.83
2022-07-29T01:41:18.695Z,19.80
2022-07-29T01:44:02.630Z,19.87
2022-07-29T01:46:36.009Z,19.85
2022-07-29T01:49:16.285Z,19.81
2022-07-29T01:52:01.199Z,19.80
2022-07-29T01:54:32.545Z,19.77
2022-07-29T01:57:02.925Z,19.71
2022-07-29T01:59:32.925Z,19.65
2022-07-29T02:02:03.057Z,19.59
2022-07-29T02:04:34.985Z,19.58
2022-07-29T02:07:07.110Z,19.56
2022-07-29T02:09:38.019Z,19.46
2022-07-29T02:12:08.643Z,19.40
2022-07-29T02:14:43.997Z,19.30
2022-07-29T02:17:14.624Z,19.27
2022-07-29T02:19:46.078Z,19.24
2022-07-29T02:22:15.930Z,19.20
2022-07-29T02:24:45.548Z,19.20
2022-07-29T02:27:15.551Z,19.20
2022-07-29T02:29:46.492Z,19.21
2022-07-29T02:32:17.424Z,19.14
2022-07-29T02:34:47.791Z,19.08
2022-07-29T02:37:18.582Z,19.03
2022-07-29T02:39:50.119Z,19.01
2022-07-29T02:42:19.946Z,18.99
2022-07-29T02:44:48.662Z,18.99
2022-07-29T02:47:41.797Z,18.98
2022-07-29T02:50:18.922Z,18.96
2022-07-29T02:53:10.290Z,18.97
2022-07-29T02:55:43.516Z,19.05
2022-07-29T02:58:29.717Z,19.03
2022-07-29T03:01:04.426Z,18.95
2022-07-29T03:03:38.493Z,19.01
2022-07-29T03:06:08.736Z,19.08
2022-07-29T03:08:59.070Z,19.02
2022-07-29T03:11:42.302Z,18.84
2022-07-29T03:14:19.516Z,18.71
2022-07-29T03:16:49.008Z,18.68
2022-07-29T03:19:18.584Z,18.66
2022-07-29T03:21:47.599Z,18.66
2022-07-29T03:24:30.432Z,18.67
2022-07-29T03:26:59.130Z,18.62
2022-07-29T03:29:33.576Z,18.57
2022-07-29T03:32:07.900Z,18.50
2022-07-29T03:34:38.856Z,18.47
2022-07-29T03:37:08.002Z,18.51
2022-07-29T03:39:42.622Z,18.59
2022-07-29T03:42:15.273Z,18.60
2022-07-29T03:44:47.033Z,18.57
2022-07-29T03:47:18.792Z,18.63
2022-07-29T03:49:53.317Z,18.77
2022-07-29T03:52:22.939Z,18.87
2022-07-29T03:54:51.734Z,18.90
2022-07-29T03:57:25.035Z,18.88
2022-07-29T03:59:54.749Z,18.90
2022-07-29T04:02:28.705Z,18.88
2022-07-29T04:04:59.095Z,18.85
2022-07-29T04:07:27.655Z,18.89
2022-07-29T04:09:55.941Z,18.97
2022-07-29T04:12:24.261Z,19.05
2022-07-29T04:14:52.490Z,19.15
2022-07-29T04:17:20.679Z,19.22
2022-07-29T04:19:48.950Z,19.28
2022-07-29T04:22:17.217Z,19.31
2022-07-29T04:24:45.508Z,19.33
2022-07-29T04:27:13.881Z,19.40
2022-07-29T04:29:57.032Z,19.47
2022-07-29T04:32:27.348Z,19.52
2022-07-29T04:34:55.510Z,19.53
2022-07-29T04:37:23.788Z,19.55
2022-07-29T04:39:52.102Z,19.60
2022-07-29T04:42:27.419Z,19.62
2022-07-29T04:44:55.932Z,19.70
2022-07-29T04:47:24.763Z,19.76
2022-07-29T04:49:52.963Z,19.84
2022-07-29T04:52:21.239Z,19.91
2022-07-29T04:54:50.227Z,19.97
2022-07-29T04:57:18.544Z,20.02
2022-07-29T04:59:46.887Z,20.06
2022-07-29T05:02:15.406Z,20.05
2022-07-29T05:04:44.166Z,20.00
2022-07-29T05:07:12.338Z,19.98
2022-07-29T05:09:40.621Z,20.06
2022-07-29T05:16:41.495Z,20.19
2022-07-29T05:19:13.805Z,20.19
2022-07-29T05:21:42.652Z,20.19
2022-07-29T05:24:11.465Z,20.20
2022-07-29T05:35:39.004Z,20.43
2022-07-29T05:38:07.255Z,20.54
2022-07-29T05:40:35.851Z,20.58
2022-07-29T05:43:04.274Z,20.64
2022-07-29T05:45:32.708Z,20.77
2022-07-29T05:48:01.134Z,20.88
2022-07-29T05:50:29.600Z,20.93
2022-07-29T05:52:58.056Z,21.04
2022-07-29T05:55:26.635Z,21.12
2022-07-29T05:57:55.119Z,21.20
2022-07-29T06:00:23.742Z,21.31
2022-07-29T06:02:52.598Z,21.40
2022-07-29T06:05:21.183Z,21.40
2022-07-29T06:07:50.661Z,21.50
2022-07-29T06:10:20.301Z,21.58
2022-07-29T06:12:52.304Z,21.60
2022-07-29T06:15:20.676Z,21.65
2022-07-29T06:17:59.685Z,21.68
2022-07-29T06:20:31.536Z,21.77
2022-07-29T06:23:00.976Z,21.88
2022-07-29T06:25:33.440Z,21.93
2022-07-29T06:28:02.527Z,21.99
2022-07-29T06:30:30.955Z,22.10
2022-07-29T06:32:59.519Z,22.23
2022-07-29T06:35:41.053Z,22.33
2022-07-29T06:38:30.950Z,22.45
2022-07-29T06:41:18.486Z,22.60
2022-07-29T06:43:51.854Z,22.79
2022-07-29T06:46:23.663Z,23.04
2022-07-29T06:48:53.345Z,23.36
2022-07-29T06:51:23.836Z,23.56
2022-07-29T06:53:59.500Z,23.83
2022-07-29T06:56:39.151Z,24.03
2022-07-29T06:59:13.709Z,24.02
2022-07-29T07:01:43.136Z,23.86
2022-07-29T07:04:13.014Z,23.83
2022-07-29T07:06:41.954Z,23.80
2022-07-29T07:09:10.213Z,23.83
2022-07-29T07:11:38.488Z,23.85
2022-07-29T07:14:06.861Z,23.94
2022-07-29T07:16:35.095Z,24.01
2022-07-29T07:19:03.554Z,24.08
2022-07-29T07:21:31.792Z,24.13
2022-07-29T07:24:01.756Z,24.18
2022-07-29T07:26:30.096Z,24.14
2022-07-29T07:28:58.525Z,24.16
2022-07-29T07:31:26.940Z,24.12
2022-07-29T07:33:55.345Z,24.24
2022-07-29T07:36:24.548Z,24.43
2022-07-29T07:38:52.810Z,24.51
2022-07-29T07:41:22.823Z,24.44
2022-07-29T07:43:50.970Z,24.46
2022-07-29T07:46:19.206Z,24.42
2022-07-29T07:48:47.370Z,24.35
2022-07-29T07:51:15.518Z,24.32
2022-07-29T07:53:43.681Z,24.31
2022-07-29T07:56:12.828Z,24.43
2022-07-29T07:58:41.336Z,24.55
2022-07-29T08:01:10.756Z,24.59
2022-07-29T08:03:40.029Z,24.64
2022-07-29T08:06:08.900Z,24.80
2022-07-29T08:08:37.027Z,25.05
2022-07-29T08:11:09.542Z,25.25
2022-07-29T08:13:39.631Z,25.35
2022-07-29T08:16:16.718Z,25.33
2022-07-29T08:18:46.578Z,25.40
2022-07-29T08:21:16.455Z,25.61
2022-07-29T08:23:59.703Z,25.50
2022-07-29T08:26:28.998Z,25.80
2022-07-29T08:28:57.228Z,26.02
2022-07-29T08:31:25.626Z,26.15
2022-07-29T08:33:53.982Z,26.19
2022-07-29T08:40:55.394Z,26.27
2022-07-29T08:43:24.225Z,26.40
2022-07-29T08:45:53.182Z,26.45
2022-07-29T08:48:23.848Z,26.61
2022-07-29T08:50:57.094Z,26.81
2022-07-29T08:53:28.454Z,26.84
2022-07-29T08:55:57.231Z,26.97
2022-07-29T08:58:26.875Z,27.07
2022-07-29T09:00:57.987Z,27.24
2022-07-29T09:03:31.758Z,27.38
2022-07-29T09:06:00.492Z,27.54
2022-07-29T09:08:29.312Z,27.62
2022-07-29T09:10:57.471Z,27.88
2022-07-29T09:13:26.010Z,28.13
2022-07-29T09:15:55.060Z,28.45
2022-07-29T09:18:43.431Z,28.75
2022-07-29T09:21:34.258Z,28.84
2022-07-29T09:24:11.568Z,28.98
2022-07-29T09:26:47.258Z,29.35
2022-07-29T09:29:17.811Z,29.68
2022-07-29T09:31:48.187Z,29.67
2022-07-29T09:34:29.578Z,29.61
2022-07-29T09:36:58.426Z,29.30
2022-07-29T09:39:47.363Z,29.05
2022-07-29T09:42:29.349Z,28.82
2022-07-29T09:44:57.607Z,28.56
2022-07-29T09:47:42.275Z,28.41
2022-07-29T09:54:29.218Z,27.76
2022-07-29T09:56:57.481Z,27.61
2022-07-29T09:59:27.588Z,27.52
2022-07-29T10:01:56.644Z,27.44
2022-07-29T10:04:25.157Z,27.39
2022-07-29T10:07:04.740Z,27.32
2022-07-29T10:09:35.216Z,27.23
2022-07-29T10:12:14.776Z,27.16
2022-07-29T10:14:43.966Z,27.14
2022-07-29T10:17:12.355Z,27.06
2022-07-29T10:19:40.988Z,27.03
2022-07-29T10:22:11.414Z,26.91
2022-07-29T10:24:40.286Z,26.89
2022-07-29T10:27:10.308Z,26.83
2022-07-29T10:29:38.570Z,26.85
2022-07-29T10:32:09.563Z,26.86
2022-07-29T10:35:15.485Z,26.86
2022-07-29T10:37:56.966Z,26.84
2022-07-29T10:41:32.232Z,26.83
2022-07-29T10:44:23.253Z,26.77
2022-07-29T10:46:53.420Z,26.72
2022-07-29T10:49:30.305Z,26.65
2022-07-29T10:52:06.568Z,26.57
2022-07-29T10:54:37.802Z,26.48
2022-07-29T10:57:53.227Z,26.33
2022-07-29T11:00:16.904Z,26.23
2022-07-29T11:02:50.186Z,26.16
2022-07-29T11:05:20.812Z,26.16
2022-07-29T11:08:12.489Z,26.15
2022-07-29T11:10:50.556Z,26.12
2022-07-29T11:13:49.360Z,26.09
2022-07-29T11:16:20.117Z,26.06
2022-07-29T11:19:11.412Z,26.03
2022-07-29T11:21:54.145Z,26.00
2022-07-29T11:24:35.936Z,25.97
2022-07-29T11:27:19.925Z,25.96
2022-07-29T11:29:55.542Z,25.94
2022-07-29T11:32:29.199Z,25.92
2022-07-29T11:35:17.208Z,25.57
2022-07-29T11:37:52.735Z,25.13
2022-07-29T11:40:26.224Z,24.66
2022-07-29T11:42:55.062Z,24.29
2022-07-29T11:45:42.534Z,23.98
2022-07-29T11:51:13.322Z,23.24
2022-07-29T11:53:48.010Z,23.06
2022-07-29T11:56:25.742Z,22.87
2022-07-29T11:59:08.597Z,22.75
2022-07-29T12:01:37.329Z,22.68
2022-07-29T12:04:07.805Z,22.58
2022-07-29T12:06:36.435Z,22.49
2022-07-29T12:09:11.245Z,22.45
2022-07-29T12:11:47.332Z,22.41
2022-07-29T12:14:30.289Z,22.40
2022-07-29T12:16:59.741Z,22.37
2022-07-29T12:19:28.603Z,22.37
2022-07-29T12:22:02.241Z,22.32
2022-07-29T12:24:44.887Z,22.31
2022-07-29T12:27:13.239Z,22.32
2022-07-29T12:29:46.298Z,22.26
2022-07-29T12:32:19.483Z,22.22
2022-07-29T12:34:48.751Z,22.23
2022-07-29T12:37:17.658Z,22.27
2022-07-29T12:39:46.611Z,22.28
2022-07-29T12:42:18.461Z,22.30
2022-07-29T12:44:49.110Z,22.31
2022-07-29T12:47:19.320Z,22.30
2022-07-29T12:49:49.050Z,22.31
2022-07-29T12:52:27.560Z,22.34
2022-07-29T12:54:56.043Z,22.28
2022-07-29T12:57:25.243Z,22.27
2022-07-29T13:00:04.897Z,22.31
2022-07-29T13:02:33.331Z,22.37
2022-07-29T13:05:03.407Z,22.38
2022-07-29T13:08:29.574Z,22.42
2022-07-29T13:10:24.073Z,22.49
2022-07-29T13:13:16.573Z,22.53
2022-07-29T13:15:48.626Z,22.55
2022-07-29T13:18:34.949Z,22.60
2022-07-29T13:21:18.841Z,22.64
2022-07-29T13:23:47.397Z,22.68
2022-07-29T13:26:19.532Z,22.71
2022-07-29T13:28:47.835Z,22.70
2022-07-29T13:31:16.362Z,22.64
2022-07-29T13:33:44.694Z,22.62
2022-07-29T13:36:13.057Z,22.60
2022-07-29T13:38:41.225Z,22.59
2022-07-29T13:41:09.612Z,22.58
2022-07-29T13:43:38.921Z,22.55
2022-07-29T13:46:07.058Z,22.51
2022-07-29T13:48:35.607Z,22.46
2022-07-29T13:51:04.061Z,22.42
2022-07-29T13:53:32.437Z,22.40
2022-07-29T13:56:01.124Z,22.41
2022-07-29T13:58:29.499Z,22.40
2022-07-29T14:00:58.364Z,22.36
2022-07-29T14:03:26.984Z,22.32
2022-07-29T14:05:55.912Z,22.27
2022-07-29T14:08:24.211Z,22.23
2022-07-29T14:10:52.425Z,22.20
2022-07-29T14:13:25.245Z,22.20
2022-07-29T14:15:54.214Z,22.20
2022-07-29T14:18:22.585Z,22.16
2022-07-29T14:20:52.219Z,22.12
2022-07-29T14:23:20.515Z,22.08
2022-07-29T14:25:49.453Z,22.05
2022-07-29T14:28:18.080Z,21.95
2022-07-29T14:30:46.450Z,21.89
2022-07-29T14:33:15.448Z,21.79
2022-07-29T14:35:43.944Z,21.67
2022-07-29T14:38:12.504Z,21.59
2022-07-29T14:40:40.776Z,21.52
2022-07-29T14:43:10.210Z,21.51
2022-07-29T14:45:38.693Z,21.49
2022-07-29T14:48:07.501Z,21.46
2022-07-29T14:50:36.163Z,21.44
2022-07-29T14:53:04.844Z,21.40
2022-07-29T14:55:33.130Z,21.40
2022-07-29T14:58:08.945Z,21.44
2022-07-29T15:00:40.644Z,21.47
2022-07-29T15:03:11.647Z,21.49
2022-07-29T15:05:40.356Z,21.50
2022-07-29T15:08:09.304Z,21.50
2022-07-29T15:10:39.300Z,21.48
2022-07-29T15:13:07.543Z,21.50
2022-07-29T15:15:35.647Z,21.56
2022-07-29T15:18:04.181Z,21.62
2022-07-29T15:20:32.350Z,21.67
2022-07-29T15:23:00.481Z,21.74
2022-07-29T15:25:28.730Z,21.77
2022-07-29T15:28:01.354Z,21.84
2022-07-29T15:30:34.407Z,21.95
2022-07-29T15:33:04.595Z,22.08
2022-07-29T15:35:33.650Z,22.19
2022-07-29T15:38:09.688Z,22.27
2022-07-29T15:40:42.338Z,22.43
2022-07-29T15:43:10.788Z,22.59
2022-07-29T15:46:06.768Z,22.72
2022-07-29T15:48:39.496Z,22.84
2022-07-29T15:51:07.936Z,22.91
2022-07-29T15:53:36.055Z,22.93
2022-07-29T15:56:04.703Z,22.97
2022-07-29T15:58:32.982Z,23.05
2022-07-29T16:01:01.311Z,23.12
2022-07-29T16:03:29.804Z,23.19
2022-07-29T16:05:58.123Z,23.22
2022-07-29T16:08:26.503Z,23.23
2022-07-29T16:10:54.878Z,23.23
2022-07-29T16:13:24.084Z,23.25
2022-07-29T16:16:02.289Z,23.32
2022-07-29T16:18:31.083Z,23.33
2022-07-29T16:20:59.258Z,23.30
2022-07-29T16:23:27.547Z,23.23
2022-07-29T16:26:00.848Z,23.12
2022-07-29T16:28:31.075Z,23.02
2022-07-29T16:30:59.875Z,22.92
2022-07-29T16:33:28.946Z,22.87
2022-07-29T16:36:18.527Z,22.83
2022-07-29T16:38:47.637Z,22.78
2022-07-29T16:41:16.105Z,22.72
2022-07-29T16:43:44.573Z,22.67
2022-07-29T16:46:18.496Z,22.61
2022-07-29T16:48:48.691Z,22.55
2022-07-29T16:51:17.205Z,22.53
2022-07-29T16:53:45.809Z,22.51
2022-07-29T16:56:18.280Z,22.48
2022-07-29T16:58:46.541Z,22.44
2022-07-29T17:01:15.036Z,22.43
2022-07-29T17:04:02.224Z,22.42
2022-07-29T17:06:30.646Z,22.39
2022-07-29T17:08:59.013Z,22.38
2022-07-29T17:11:52.498Z,22.35
2022-07-29T17:14:15.942Z,22.29
2022-07-29T17:17:00.340Z,22.24
2022-07-29T17:19:31.145Z,22.20
2022-07-29T17:22:07.030Z,22.15
2022-07-29T17:24:38.953Z,22.11
2022-07-29T17:27:09.898Z,22.09
2022-07-29T17:29:39.300Z,22.05
2022-07-29T17:32:09.317Z,21.96
2022-07-29T17:34:39.342Z,21.94
2022-07-29T17:37:10.801Z,21.95
2022-07-29T17:39:41.395Z,21.92
2022-07-29T17:42:13.391Z,21.89
2022-07-29T17:44:42.802Z,21.84
2022-07-29T17:47:15.951Z,21.78
2022-07-29T17:49:46.125Z,21.73
2022-07-29T17:52:14.389Z,21.63
2022-07-29T17:54:42.585Z,21.56
2022-07-29T17:57:10.690Z,21.53
2022-07-29T17:59:38.924Z,21.46
2022-07-29T18:02:07.552Z,21.43
2022-07-29T18:04:35.779Z,21.41
2022-07-29T18:07:04.199Z,21.37
2022-07-29T18:09:32.550Z,21.35
2022-07-29T18:12:00.830Z,21.37
2022-07-29T18:14:29.023Z,21.41
2022-07-29T18:16:57.535Z,21.43
2022-07-29T18:19:25.950Z,21.43
2022-07-29T18:21:56.572Z,21.39
2022-07-29T18:24:27.956Z,21.33
2022-07-29T18:26:56.921Z,21.26
2022-07-29T18:29:25.646Z,21.20
2022-07-29T18:31:53.827Z,21.18
2022-07-29T18:34:22.319Z,21.19
2022-07-29T18:36:50.460Z,21.14
2022-07-29T18:39:21.186Z,21.10
2022-07-29T18:41:52.795Z,21.08
2022-07-29T18:44:22.732Z,21.03
2022-07-29T18:46:52.675Z,21.00
2022-07-29T18:49:21.756Z,20.99
2022-07-29T18:51:50.685Z,20.99
2022-07-29T18:54:19.878Z,20.98
2022-07-29T18:56:48.700Z,20.96
2022-07-29T18:59:22.656Z,20.94
2022-07-29T19:01:51.697Z,20.94
2022-07-29T19:04:20.088Z,20.89
2022-07-29T19:06:48.534Z,20.82
2022-07-29T19:09:17.747Z,20.78
2022-07-29T19:11:46.246Z,20.75
2022-07-29T19:14:14.509Z,20.69
2022-07-29T19:16:42.778Z,20.64
2022-07-29T19:19:11.061Z,20.61
2022-07-29T19:21:39.343Z,20.63
2022-07-29T19:24:12.310Z,20.63
2022-07-29T19:26:46.985Z,20.62
2022-07-29T19:29:16.155Z,20.62
2022-07-29T19:31:44.453Z,20.62
2022-07-29T19:34:13.042Z,20.59
2022-07-29T19:36:42.119Z,20.56
2022-07-29T19:39:10.618Z,20.53
2022-07-29T19:41:39.021Z,20.51
2022-07-29T19:44:07.088Z,20.52
2022-07-29T19:46:35.698Z,20.51
2022-07-29T19:49:06.836Z,20.49
2022-07-29T19:51:35.273Z,20.52
2022-07-29T19:54:03.774Z,20.55
2022-07-29T19:56:32.231Z,20.51
2022-07-29T19:59:01.802Z,20.48
2022-07-29T20:01:32.387Z,20.51
2022-07-29T20:04:00.958Z,20.51
2022-07-29T20:06:29.295Z,20.48
2022-07-29T20:08:58.990Z,20.46
2022-07-29T20:11:29.849Z,20.46
2022-07-29T20:13:58.267Z,20.48
2022-07-29T20:16:26.706Z,20.46
2022-07-29T20:18:55.140Z,20.39
2022-07-29T20:21:23.281Z,20.36
2022-07-29T20:23:51.510Z,20.34
2022-07-29T20:26:20.076Z,20.30
2022-07-29T20:28:49.593Z,20.25
2022-07-29T20:31:19.256Z,20.22
2022-07-29T20:33:48.692Z,20.19
2022-07-29T20:36:17.291Z,20.19
2022-07-29T20:38:45.557Z,20.18
2022-07-29T20:41:14.481Z,20.21
2022-07-29T20:43:43.546Z,20.22
2022-07-29T20:46:11.883Z,20.11
2022-07-29T20:48:41.113Z,20.00
2022-07-29T20:51:09.411Z,19.96
2022-07-29T20:53:40.043Z,19.99
2022-07-29T20:56:08.746Z,19.90
2022-07-29T20:58:37.011Z,19.76
2022-07-29T21:01:06.366Z,19.72
2022-07-29T21:03:34.717Z,19.74
2022-07-29T21:06:03.793Z,19.75
2022-07-29T21:08:32.404Z,19.77
2022-07-29T21:11:00.760Z,19.75
2022-07-29T21:13:28.808Z,19.73
2022-07-29T21:16:04.265Z,19.70
2022-07-29T21:18:37.586Z,19.67
2022-07-29T21:21:06.051Z,19.69
2022-07-29T21:23:34.681Z,19.68
2022-07-29T21:26:04.272Z,19.70
2022-07-29T21:28:40.932Z,19.75
2022-07-29T21:31:16.304Z,19.74
2022-07-29T21:33:46.780Z,19.73
2022-07-29T21:36:46.847Z,19.67
2022-07-29T21:39:07.291Z,19.66
2022-07-29T21:41:36.011Z,19.68
2022-07-29T21:44:04.180Z,19.66
2022-07-29T21:46:32.619Z,19.66
2022-07-29T21:49:00.959Z,19.65
2022-07-29T21:51:29.326Z,19.70
2022-07-29T21:53:57.942Z,19.73
2022-07-29T21:56:27.845Z,19.72
2022-07-29T21:58:56.415Z,19.75
2022-07-29T22:01:24.922Z,19.79
2022-07-29T22:03:53.308Z,19.73
2022-07-29T22:06:21.886Z,19.71
2022-07-29T22:08:50.145Z,19.68
2022-07-29T22:11:18.829Z,19.64
2022-07-29T22:13:48.862Z,19.70
2022-07-29T22:16:17.842Z,19.77
2022-07-29T22:18:47.490Z,19.78
2022-07-29T22:21:15.966Z,19.74
2022-07-29T22:23:44.207Z,19.69
2022-07-29T22:26:12.728Z,19.66
2022-07-29T22:28:40.974Z,19.66
2022-07-29T22:31:09.391Z,19.64
2022-07-29T22:33:37.949Z,19.59
2022-07-29T22:36:06.834Z,19.56
2022-07-29T22:38:35.208Z,19.58
2022-07-29T22:41:03.505Z,19.60
2022-07-29T22:43:31.682Z,19.67
2022-07-29T22:45:59.987Z,19.67
2022-07-29T22:48:28.085Z,19.63
2022-07-29T22:50:56.402Z,19.58
2022-07-29T22:53:24.786Z,19.53
2022-07-29T22:55:54.903Z,19.47
2022-07-29T22:58:23.111Z,19.47
2022-07-29T23:00:51.389Z,19.49
2022-07-29T23:03:22.048Z,19.43
2022-07-29T23:05:51.943Z,19.39
2022-07-29T23:08:20.833Z,19.32
2022-07-29T23:10:49.283Z,19.28
2022-07-29T23:13:17.662Z,19.29
2022-07-29T23:15:46.043Z,19.31
2022-07-29T23:18:14.544Z,19.24
2022-07-29T23:20:43.985Z,19.17
2022-07-29T23:23:12.313Z,19.18
2022-07-29T23:25:40.705Z,19.23
2022-07-29T23:28:11.664Z,19.27
2022-07-29T23:30:42.833Z,19.21
2022-07-29T23:33:11.161Z,19.13
2022-07-29T23:35:39.554Z,19.04
2022-07-29T23:38:08.017Z,18.94
2022-07-29T23:40:36.350Z,18.86
2022-07-29T23:43:08.751Z,18.84
2022-07-29T23:45:44.650Z,18.82
2022-07-29T23:48:16.908Z,18.82
2022-07-29T23:50:45.214Z,18.76
2022-07-29T23:53:13.462Z,18.75
2022-07-29T23:55:41.738Z,18.81
2022-07-29T23:58:10.347Z,18.89
